createdAt,value
2023-05-15T00:00:14.529Z,93.44
2023-05-15T00:02:45.062Z,93.11
2023-05-15T00:05:14.038Z,92.53
2023-05-15T00:07:42.763Z,92.59
2023-05-15T00:10:11.444Z,92.62
2023-05-15T00:12:39.639Z,91.83
2023-05-15T00:15:10.361Z,91.75
2023-05-15T00:17:38.564Z,91.67
2023-05-15T00:20:10.057Z,92.48
2023-05-15T00:22:38.274Z,92.03
2023-05-15T00:25:07.515Z,91.88
2023-05-15T00:27:36.196Z,91.56
2023-05-15T00:30:06.093Z,91.16
2023-05-15T00:32:35.908Z,91.35
2023-05-15T00:35:04.939Z,91.00
2023-05-15T00:37:33.122Z,91.30
2023-05-15T00:40:01.253Z,91.35
2023-05-15T00:42:30.555Z,90.92
2023-05-15T00:44:59.611Z,90.94
2023-05-15T00:47:28.123Z,91.25
2023-05-15T00:49:58.496Z,90.97
2023-05-15T00:52:27.313Z,91.01
2023-05-15T00:54:55.488Z,91.01
2023-05-15T00:57:25.059Z,91.67
2023-05-15T00:59:53.553Z,90.58
2023-05-15T01:02:21.725Z,90.72
2023-05-15T01:04:49.944Z,90.82
2023-05-15T01:07:19.424Z,90.77
2023-05-15T01:09:48.723Z,90.66
2023-05-15T01:12:17.164Z,90.62
2023-05-15T01:14:45.319Z,90.31
2023-05-15T01:17:13.484Z,90.50
2023-05-15T01:19:43.189Z,90.19
2023-05-15T01:22:35.000Z,90.23
2023-05-15T01:25:48.342Z,90.52
2023-05-15T01:28:21.711Z,90.29
2023-05-15T01:30:50.453Z,90.09
2023-05-15T01:33:22.546Z,90.23
2023-05-15T01:35:55.404Z,90.36
2023-05-15T01:38:28.396Z,90.67
2023-05-15T01:41:03.247Z,90.44
2023-05-15T01:43:34.286Z,90.61
2023-05-15T01:46:03.405Z,90.52
2023-05-15T01:48:32.551Z,90.36
2023-05-15T01:51:04.716Z,90.41
2023-05-15T01:53:33.732Z,90.23
2023-05-15T01:56:02.216Z,90.28
2023-05-15T01:58:33.513Z,90.09
2023-05-15T02:01:02.293Z,90.55
2023-05-15T02:03:33.435Z,90.95
2023-05-15T02:06:02.596Z,90.51
2023-05-15T02:08:32.137Z,90.36
2023-05-15T02:11:01.627Z,90.04
2023-05-15T02:13:30.223Z,90.48
2023-05-15T02:15:59.824Z,90.33
2023-05-15T02:18:29.163Z,89.84
2023-05-15T02:21:02.891Z,90.73
2023-05-15T02:23:31.201Z,90.49
2023-05-15T02:26:09.914Z,90.40
2023-05-15T02:28:44.374Z,90.53
2023-05-15T02:31:20.858Z,90.27
2023-05-15T02:33:55.864Z,90.12
2023-05-15T02:36:28.365Z,89.83
2023-05-15T02:38:57.086Z,90.03
2023-05-15T02:41:25.446Z,90.05
2023-05-15T02:43:55.199Z,90.08
2023-05-15T02:46:25.873Z,90.00
2023-05-15T02:48:54.902Z,89.92
2023-05-15T02:51:23.100Z,90.45
2023-05-15T02:53:51.439Z,90.64
2023-05-15T02:56:19.604Z,91.55
2023-05-15T02:58:47.711Z,90.98
2023-05-15T03:01:16.076Z,91.18
2023-05-15T03:03:45.676Z,91.15
2023-05-15T03:06:13.820Z,91.22
2023-05-15T03:08:42.004Z,91.66
2023-05-15T03:11:10.174Z,91.87
2023-05-15T03:13:38.340Z,91.51
2023-05-15T03:16:07.082Z,91.45
2023-05-15T03:18:35.564Z,91.63
2023-05-15T03:21:05.756Z,91.06
2023-05-15T03:23:35.728Z,91.20
2023-05-15T03:26:05.465Z,91.44
2023-05-15T03:28:33.761Z,91.02
2023-05-15T03:31:02.002Z,90.98
2023-05-15T03:33:30.248Z,91.51
2023-05-15T03:35:58.854Z,91.21
2023-05-15T03:38:28.490Z,90.97
2023-05-15T03:40:56.704Z,91.22
2023-05-15T03:43:25.025Z,91.01
2023-05-15T03:45:53.208Z,90.77
2023-05-15T03:48:21.431Z,90.83
2023-05-15T03:50:49.660Z,90.72
2023-05-15T03:53:17.923Z,90.82
2023-05-15T03:55:48.068Z,90.85
2023-05-15T03:58:16.247Z,90.97
2023-05-15T04:00:44.502Z,90.63
2023-05-15T04:03:12.845Z,90.52
2023-05-15T04:05:41.388Z,90.38
2023-05-15T04:08:11.104Z,90.24
2023-05-15T04:10:39.335Z,90.38
2023-05-15T04:13:08.877Z,90.32
2023-05-15T04:15:37.564Z,90.51
2023-05-15T04:18:06.090Z,90.79
2023-05-15T04:20:34.769Z,90.75
2023-05-15T04:23:04.346Z,90.83
2023-05-15T04:25:32.641Z,90.73
2023-05-15T04:28:01.272Z,91.09
2023-05-15T04:30:31.163Z,90.72
2023-05-15T04:32:59.368Z,90.69
2023-05-15T04:35:27.662Z,90.73
2023-05-15T04:37:55.920Z,90.69
2023-05-15T04:40:24.284Z,90.76
2023-05-15T04:42:52.680Z,90.68
2023-05-15T04:45:21.479Z,90.61
2023-05-15T04:47:51.052Z,90.99
2023-05-15T04:50:19.387Z,90.72
2023-05-15T04:52:47.654Z,90.80
2023-05-15T04:55:15.867Z,90.66
2023-05-15T04:57:44.124Z,90.93
2023-05-15T05:00:14.418Z,90.99
2023-05-15T05:02:43.505Z,90.74
2023-05-15T05:05:14.747Z,90.68
2023-05-15T05:07:44.380Z,90.29
2023-05-15T05:10:13.181Z,90.60
2023-05-15T05:12:41.311Z,90.22
2023-05-15T05:15:11.028Z,89.62
2023-05-15T05:17:39.246Z,90.18
2023-05-15T05:20:12.932Z,89.75
2023-05-15T05:22:42.836Z,89.92
2023-05-15T05:25:11.430Z,90.06
2023-05-15T05:27:39.603Z,89.96
2023-05-15T05:30:09.177Z,90.42
2023-05-15T05:32:37.468Z,90.40
2023-05-15T05:35:06.437Z,90.61
2023-05-15T05:37:34.674Z,90.13
2023-05-15T05:40:05.872Z,89.98
2023-05-15T05:42:34.087Z,89.01
2023-05-15T05:45:02.289Z,89.20
2023-05-15T05:47:30.524Z,90.16
2023-05-15T05:49:58.763Z,89.95
2023-05-15T05:52:26.918Z,89.77
2023-05-15T05:54:55.042Z,89.69
2023-05-15T05:57:24.554Z,89.55
2023-05-15T05:59:52.897Z,91.36
2023-05-15T06:02:21.162Z,92.09
2023-05-15T06:04:49.357Z,92.75
2023-05-15T06:07:17.655Z,93.54
2023-05-15T06:09:47.009Z,93.83
2023-05-15T06:12:15.203Z,93.76
2023-05-15T06:14:44.790Z,93.27
2023-05-15T06:17:13.424Z,92.99
2023-05-15T06:19:41.767Z,94.01
2023-05-15T06:22:10.000Z,93.90
2023-05-15T06:24:38.228Z,93.72
2023-05-15T06:27:06.735Z,92.83
2023-05-15T06:29:35.757Z,93.93
2023-05-15T06:32:06.260Z,94.46
2023-05-15T06:34:34.456Z,95.17
2023-05-15T06:37:02.736Z,95.84
2023-05-15T06:39:30.922Z,95.88
2023-05-15T06:42:01.384Z,95.23
2023-05-15T06:44:31.395Z,95.78
2023-05-15T06:47:00.012Z,96.73
2023-05-15T06:49:29.686Z,98.02
2023-05-15T06:51:57.864Z,98.90
2023-05-15T06:54:26.720Z,98.83
2023-05-15T06:56:54.868Z,98.61
2023-05-15T06:59:23.037Z,97.79
2023-05-15T07:01:51.232Z,97.65
2023-05-15T07:04:19.466Z,97.57
2023-05-15T07:06:48.999Z,96.86
2023-05-15T07:09:17.215Z,97.56
2023-05-15T07:11:45.478Z,96.47
2023-05-15T07:14:13.688Z,97.03
2023-05-15T07:16:41.872Z,96.69
2023-05-15T07:19:10.210Z,96.32
2023-05-15T07:21:39.849Z,96.49
2023-05-15T07:24:09.692Z,97.45
2023-05-15T07:26:50.165Z,97.71
2023-05-15T07:29:25.503Z,97.71
2023-05-15T07:31:53.766Z,97.54
2023-05-15T07:34:22.500Z,96.90
2023-05-15T07:36:50.661Z,96.96
2023-05-15T07:39:20.217Z,96.67
2023-05-15T07:41:48.513Z,96.58
2023-05-15T07:44:16.748Z,96.33
2023-05-15T07:46:45.749Z,95.83
2023-05-15T07:49:14.098Z,96.11
2023-05-15T07:51:42.750Z,96.17
2023-05-15T07:54:11.022Z,96.82
2023-05-15T07:56:40.564Z,96.86
2023-05-15T07:59:09.516Z,96.81
2023-05-15T08:01:37.730Z,96.38
2023-05-15T08:04:08.154Z,96.52
2023-05-15T08:06:38.163Z,97.18
2023-05-15T08:09:06.428Z,97.47
2023-05-15T08:11:34.617Z,97.49
2023-05-15T08:14:04.165Z,97.47
2023-05-15T08:16:32.423Z,98.28
2023-05-15T08:19:03.674Z,97.99
2023-05-15T08:21:32.417Z,97.93
2023-05-15T08:24:01.025Z,97.93
2023-05-15T08:26:29.210Z,97.24
2023-05-15T08:28:57.392Z,96.94
2023-05-15T08:31:26.978Z,97.50
2023-05-15T08:33:55.188Z,96.79
2023-05-15T08:36:23.544Z,96.98
2023-05-15T08:38:51.789Z,96.85
2023-05-15T08:41:39.874Z,98.46
2023-05-15T08:44:11.045Z,97.49
2023-05-15T08:46:41.166Z,96.55
2023-05-15T08:49:12.939Z,96.01
2023-05-15T08:51:41.382Z,95.58
2023-05-15T08:54:10.190Z,95.69
2023-05-15T08:56:38.679Z,95.17
2023-05-15T08:59:07.129Z,97.06
2023-05-15T09:01:35.374Z,96.11
2023-05-15T09:04:05.661Z,93.90
2023-05-15T09:06:34.963Z,92.98
2023-05-15T09:09:05.353Z,89.92
2023-05-15T09:11:33.915Z,91.93
2023-05-15T09:14:02.258Z,90.75
2023-05-15T09:16:30.416Z,90.60
2023-05-15T09:18:59.686Z,89.95
2023-05-15T09:21:31.393Z,90.16
2023-05-15T09:24:18.859Z,87.63
2023-05-15T09:26:48.849Z,86.29
2023-05-15T09:29:18.861Z,88.63
2023-05-15T09:31:47.854Z,87.17
2023-05-15T09:34:16.097Z,87.76
2023-05-15T09:36:45.925Z,87.29
2023-05-15T09:39:14.116Z,89.44
2023-05-15T09:41:44.281Z,85.81
2023-05-15T09:44:25.710Z,85.76
2023-05-15T09:46:54.290Z,84.66
2023-05-15T09:49:22.613Z,87.08
2023-05-15T09:51:55.271Z,82.77
2023-05-15T09:54:24.607Z,84.28
2023-05-15T09:56:52.838Z,83.57
2023-05-15T09:59:22.413Z,83.19
2023-05-15T10:01:51.920Z,88.33
2023-05-15T10:04:20.093Z,89.66
2023-05-15T10:06:50.087Z,90.17
2023-05-15T10:09:19.679Z,90.77
2023-05-15T10:11:52.996Z,91.04
2023-05-15T10:14:21.426Z,92.10
2023-05-15T10:16:49.648Z,93.77
2023-05-15T10:19:19.430Z,92.86
2023-05-15T10:21:48.474Z,92.05
2023-05-15T10:24:19.091Z,89.84
2023-05-15T10:26:48.758Z,90.04
2023-05-15T10:29:21.190Z,87.21
2023-05-15T10:31:49.939Z,84.07
2023-05-15T10:34:18.553Z,86.55
2023-05-15T10:36:47.097Z,86.44
2023-05-15T10:39:15.340Z,81.28
2023-05-15T10:41:46.574Z,83.41
2023-05-15T10:44:15.908Z,81.55
2023-05-15T10:46:44.484Z,85.44
2023-05-15T10:49:12.771Z,83.37
2023-05-15T10:51:41.019Z,82.82
2023-05-15T10:54:11.005Z,82.69
2023-05-15T10:56:39.933Z,84.41
2023-05-15T10:59:10.852Z,84.52
2023-05-15T11:01:40.585Z,85.27
2023-05-15T11:04:10.970Z,84.98
2023-05-15T11:06:40.604Z,84.26
2023-05-15T11:09:40.467Z,81.10
2023-05-15T11:12:10.100Z,83.00
2023-05-15T11:14:41.717Z,83.56
2023-05-15T11:17:10.813Z,83.76
2023-05-15T11:19:44.459Z,76.67
2023-05-15T11:22:20.644Z,78.38
2023-05-15T11:24:52.002Z,77.90
2023-05-15T11:27:21.627Z,76.23
2023-05-15T11:30:11.944Z,78.42
2023-05-15T11:33:01.574Z,76.39
2023-05-15T11:35:31.063Z,77.09
2023-05-15T11:38:01.230Z,78.28
2023-05-15T11:40:30.936Z,77.61
2023-05-15T11:43:18.208Z,76.57
2023-05-15T11:45:49.914Z,77.67
2023-05-15T11:48:18.890Z,74.09
2023-05-15T11:50:47.409Z,71.34
2023-05-15T11:53:16.405Z,72.67
2023-05-15T11:55:45.964Z,77.75
2023-05-15T11:58:15.824Z,77.19
2023-05-15T12:00:48.721Z,76.05
2023-05-15T12:03:18.083Z,71.30
2023-05-15T12:05:57.404Z,73.44
2023-05-15T12:08:28.011Z,73.26
2023-05-15T12:10:59.580Z,77.66
2023-05-15T12:13:27.836Z,73.00
2023-05-15T12:15:57.849Z,71.61
2023-05-15T12:18:26.344Z,77.54
2023-05-15T12:20:55.503Z,76.01
2023-05-15T12:23:25.132Z,77.67
2023-05-15T12:25:58.485Z,78.79
2023-05-15T12:28:27.460Z,77.52
2023-05-15T12:30:57.193Z,82.96
2023-05-15T12:33:25.972Z,87.67
2023-05-15T12:35:59.873Z,84.78
2023-05-15T12:38:29.314Z,87.25
2023-05-15T12:40:57.818Z,83.91
2023-05-15T12:43:26.459Z,83.58
2023-05-15T12:45:55.393Z,83.19
2023-05-15T12:48:29.264Z,82.50
2023-05-15T12:50:57.786Z,83.60
2023-05-15T12:53:25.920Z,81.86
2023-05-15T12:55:54.191Z,82.84
2023-05-15T12:58:22.608Z,82.69
2023-05-15T13:00:52.847Z,76.05
2023-05-15T13:03:22.563Z,76.85
2023-05-15T13:05:54.179Z,75.60
2023-05-15T13:08:22.403Z,82.27
2023-05-15T13:10:58.012Z,75.32
2023-05-15T13:13:30.053Z,65.74
2023-05-15T13:15:58.315Z,72.69
2023-05-15T13:18:26.485Z,69.88
2023-05-15T13:20:56.744Z,73.25
2023-05-15T13:23:25.026Z,75.17
2023-05-15T13:25:53.994Z,70.39
2023-05-15T13:28:22.173Z,72.17
2023-05-15T13:30:50.368Z,70.34
2023-05-15T13:33:18.627Z,71.57
2023-05-15T13:35:46.937Z,68.93
2023-05-15T13:38:16.638Z,66.35
2023-05-15T13:40:44.851Z,68.48
2023-05-15T13:43:13.207Z,69.34
2023-05-15T13:45:42.055Z,72.48
2023-05-15T13:48:10.411Z,65.73
2023-05-15T13:50:39.638Z,59.31
2023-05-15T13:53:08.376Z,66.94
2023-05-15T13:55:38.026Z,61.49
2023-05-15T13:58:06.329Z,62.16
2023-05-15T14:00:34.760Z,65.09
2023-05-15T14:03:03.053Z,64.66
2023-05-15T14:05:31.439Z,65.40
2023-05-15T14:07:59.760Z,61.97
2023-05-15T14:10:27.978Z,61.63
2023-05-15T14:12:59.364Z,64.16
2023-05-15T14:15:28.839Z,62.47
2023-05-15T14:17:57.080Z,62.18
2023-05-15T14:20:25.502Z,62.81
2023-05-15T14:22:53.973Z,63.53
2023-05-15T14:25:22.188Z,65.29
2023-05-15T14:27:50.921Z,66.29
2023-05-15T14:30:20.650Z,64.16
2023-05-15T14:32:48.961Z,65.28
2023-05-15T14:35:17.201Z,64.86
2023-05-15T14:37:45.506Z,63.03
2023-05-15T14:40:14.444Z,64.32
2023-05-15T14:42:42.690Z,64.87
2023-05-15T14:45:11.652Z,65.55
2023-05-15T14:47:41.310Z,67.25
2023-05-15T14:50:09.755Z,67.78
2023-05-15T14:52:37.932Z,67.64
2023-05-15T14:55:09.293Z,69.44
2023-05-15T14:57:38.300Z,69.49
2023-05-15T15:00:08.212Z,70.63
2023-05-15T15:02:36.729Z,72.17
2023-05-15T15:05:07.515Z,72.01
2023-05-15T15:07:59.998Z,72.45
2023-05-15T15:10:28.789Z,72.62
2023-05-15T15:12:57.125Z,73.75
2023-05-15T15:15:25.828Z,75.31
2023-05-15T15:17:54.386Z,76.15
2023-05-15T15:20:25.332Z,74.21
2023-05-15T15:22:53.803Z,74.16
2023-05-15T15:25:22.399Z,77.04
2023-05-15T15:27:50.835Z,75.94
2023-05-15T15:30:19.151Z,75.68
2023-05-15T15:32:47.544Z,75.35
2023-05-15T15:35:15.808Z,75.12
2023-05-15T15:37:45.440Z,76.56
2023-05-15T15:40:13.964Z,75.14
2023-05-15T15:42:42.148Z,75.38
2023-05-15T15:45:10.616Z,75.46
2023-05-15T15:47:38.852Z,75.48
2023-05-15T15:50:07.746Z,73.71
2023-05-15T15:52:36.114Z,72.60
2023-05-15T15:55:06.603Z,77.00
2023-05-15T15:57:35.079Z,77.05
2023-05-15T16:00:03.402Z,76.65
2023-05-15T16:02:34.916Z,76.50
2023-05-15T16:05:03.592Z,75.82
2023-05-15T16:07:31.800Z,75.46
2023-05-15T16:10:11.788Z,74.83
2023-05-15T16:12:43.865Z,73.17
2023-05-15T16:15:22.437Z,73.25
2023-05-15T16:17:53.458Z,73.54
2023-05-15T16:20:22.055Z,72.86
2023-05-15T16:22:50.337Z,74.54
2023-05-15T16:25:18.524Z,74.89
2023-05-15T16:27:48.097Z,74.37
2023-05-15T16:30:16.511Z,74.87
2023-05-15T16:32:44.790Z,75.28
2023-05-15T16:35:13.005Z,73.76
2023-05-15T16:37:41.187Z,74.88
2023-05-15T16:40:10.121Z,74.13
2023-05-15T16:42:38.887Z,74.08
2023-05-15T16:45:09.830Z,74.82
2023-05-15T16:47:39.106Z,75.71
2023-05-15T16:50:08.494Z,75.01
2023-05-15T16:52:38.675Z,76.80
2023-05-15T16:55:07.777Z,75.31
2023-05-15T16:57:36.129Z,76.42
2023-05-15T17:00:05.068Z,76.43
2023-05-15T17:02:34.856Z,76.74
2023-05-15T17:05:03.222Z,76.18
2023-05-15T17:07:31.457Z,74.73
2023-05-15T17:09:59.673Z,72.71
2023-05-15T17:12:27.982Z,75.61
2023-05-15T17:14:56.490Z,74.07
2023-05-15T17:17:25.691Z,73.82
2023-05-15T17:19:55.889Z,73.90
2023-05-15T17:22:24.416Z,72.65
2023-05-15T17:24:52.985Z,72.89
2023-05-15T17:27:21.482Z,74.42
2023-05-15T17:29:49.781Z,74.43
2023-05-15T17:32:18.498Z,74.07
2023-05-15T17:34:47.057Z,74.32
2023-05-15T17:37:16.752Z,74.61
2023-05-15T17:39:45.044Z,74.61
2023-05-15T17:42:13.169Z,75.13
2023-05-15T17:44:41.397Z,75.69
2023-05-15T17:47:10.347Z,74.54
2023-05-15T17:49:39.166Z,75.35
2023-05-15T17:52:07.586Z,75.39
2023-05-15T17:54:37.317Z,74.09
2023-05-15T17:57:06.256Z,74.89
2023-05-15T17:59:34.516Z,74.42
2023-05-15T18:02:02.897Z,73.78
2023-05-15T18:04:31.180Z,73.49
2023-05-15T18:06:59.362Z,74.20
2023-05-15T18:09:27.575Z,74.30
2023-05-15T18:11:57.125Z,74.18
2023-05-15T18:14:25.346Z,74.26
2023-05-15T18:16:53.726Z,74.78
2023-05-15T18:19:21.981Z,74.69
2023-05-15T18:21:50.368Z,74.98
2023-05-15T18:24:18.535Z,75.66
2023-05-15T18:26:46.890Z,75.01
2023-05-15T18:29:16.456Z,75.06
2023-05-15T18:31:44.721Z,74.99
2023-05-15T18:34:12.985Z,75.66
2023-05-15T18:36:41.220Z,75.29
2023-05-15T18:39:09.423Z,75.86
2023-05-15T18:41:38.137Z,75.12
2023-05-15T18:44:06.468Z,75.04
2023-05-15T18:46:36.138Z,75.04
2023-05-15T18:49:04.549Z,74.73
2023-05-15T18:51:34.871Z,74.95
2023-05-15T18:54:04.727Z,75.80
2023-05-15T18:56:32.937Z,77.08
2023-05-15T18:59:01.093Z,77.11
2023-05-15T19:01:29.411Z,77.13
2023-05-15T19:03:58.974Z,77.77
2023-05-15T19:06:27.260Z,78.37
2023-05-15T19:08:55.466Z,79.37
2023-05-15T19:11:23.708Z,78.30
2023-05-15T19:13:51.891Z,78.41
2023-05-15T19:16:20.191Z,77.96
2023-05-15T19:18:48.383Z,77.57
2023-05-15T19:21:21.024Z,78.04
2023-05-15T19:23:50.109Z,78.45
2023-05-15T19:26:18.354Z,78.39
2023-05-15T19:28:46.710Z,79.62
2023-05-15T19:31:27.895Z,78.66
2023-05-15T19:34:00.145Z,79.16
2023-05-15T19:36:29.882Z,79.09
2023-05-15T19:38:58.144Z,79.74
2023-05-15T19:41:26.364Z,80.34
2023-05-15T19:43:54.560Z,79.35
2023-05-15T19:46:22.833Z,79.21
2023-05-15T19:48:51.246Z,78.19
2023-05-15T19:51:19.484Z,78.04
2023-05-15T19:53:49.172Z,78.47
2023-05-15T19:56:17.439Z,77.81
2023-05-15T19:58:45.699Z,77.64
2023-05-15T20:01:13.899Z,78.16
2023-05-15T20:03:42.367Z,78.07
2023-05-15T20:06:12.080Z,78.26
2023-05-15T20:08:40.365Z,78.48
2023-05-15T20:11:10.025Z,78.23
2023-05-15T20:13:38.535Z,77.87
2023-05-15T20:16:10.680Z,78.48
2023-05-15T20:18:40.198Z,78.25
2023-05-15T20:21:08.477Z,77.71
2023-05-15T20:23:36.705Z,77.69
2023-05-15T20:26:05.005Z,78.31
2023-05-15T20:28:34.616Z,78.38
2023-05-15T20:31:03.049Z,77.96
2023-05-15T20:33:31.523Z,78.23
2023-05-15T20:36:00.313Z,78.35
2023-05-15T20:38:28.576Z,78.65
2023-05-15T20:40:57.335Z,78.41
2023-05-15T20:43:25.486Z,78.42
2023-05-15T20:45:55.129Z,78.31
2023-05-15T20:48:23.345Z,78.31
2023-05-15T20:50:53.120Z,78.34
2023-05-15T20:53:21.955Z,78.05
2023-05-15T20:55:50.118Z,78.06
2023-05-15T20:58:18.303Z,77.81
2023-05-15T21:00:48.846Z,78.01
2023-05-15T21:03:18.495Z,77.97
2023-05-15T21:05:49.059Z,78.36
2023-05-15T21:08:17.268Z,78.37
2023-05-15T21:10:45.765Z,78.53
2023-05-15T21:13:14.105Z,78.51
2023-05-15T21:15:42.298Z,78.40
2023-05-15T21:18:10.509Z,78.70
2023-05-15T21:20:41.568Z,78.71
2023-05-15T21:23:09.746Z,78.69
2023-05-15T21:25:38.404Z,78.64
2023-05-15T21:28:07.687Z,79.13
2023-05-15T21:30:35.923Z,79.00
2023-05-15T21:33:04.378Z,79.27
2023-05-15T21:35:32.764Z,79.44
2023-05-15T21:38:02.274Z,79.29
2023-05-15T21:40:30.492Z,79.37
2023-05-15T21:42:58.684Z,79.74
2023-05-15T21:45:26.908Z,79.95
2023-05-15T21:47:55.202Z,80.45
2023-05-15T21:50:23.511Z,80.68
2023-05-15T21:52:51.842Z,80.61
2023-05-15T21:55:21.487Z,80.74
2023-05-15T21:58:14.597Z,80.50
2023-05-15T22:00:42.820Z,80.83
2023-05-15T22:03:11.038Z,81.13
2023-05-15T22:05:39.320Z,80.79
2023-05-15T22:08:07.527Z,81.00
2023-05-15T22:10:37.093Z,80.88
2023-05-15T22:13:05.843Z,80.96
2023-05-15T22:15:34.099Z,81.05
2023-05-15T22:18:04.073Z,81.38
2023-05-15T22:20:32.758Z,81.35
2023-05-15T22:23:01.177Z,81.62
2023-05-15T22:25:29.347Z,81.29
2023-05-15T22:27:59.008Z,81.24
2023-05-15T22:30:27.550Z,82.16
2023-05-15T22:32:56.073Z,82.49
2023-05-15T22:35:24.792Z,82.61
2023-05-15T22:37:53.248Z,82.63
2023-05-15T22:40:21.514Z,82.92
2023-05-15T22:42:50.294Z,82.82
2023-05-15T22:45:20.508Z,83.09
2023-05-15T22:47:49.154Z,82.69
2023-05-15T22:50:17.486Z,82.95
2023-05-15T22:52:45.864Z,83.12
2023-05-15T22:55:14.290Z,83.15
2023-05-15T22:57:42.544Z,84.48
2023-05-15T23:00:12.113Z,84.44
2023-05-15T23:02:43.462Z,84.32
2023-05-15T23:05:13.158Z,84.63
2023-05-15T23:07:41.412Z,84.63
2023-05-15T23:10:10.398Z,84.75
2023-05-15T23:12:38.556Z,84.20
2023-05-15T23:15:07.451Z,84.14
2023-05-15T23:17:35.644Z,84.00
2023-05-15T23:20:06.852Z,84.57
2023-05-15T23:22:35.059Z,84.99
2023-05-15T23:25:03.449Z,85.96
2023-05-15T23:27:31.669Z,85.65
2023-05-15T23:29:59.865Z,85.88
2023-05-15T23:32:28.086Z,86.12
2023-05-15T23:34:58.460Z,85.98
2023-05-15T23:37:27.982Z,86.27
2023-05-15T23:39:56.387Z,86.82
2023-05-15T23:42:24.702Z,86.93
2023-05-15T23:44:52.903Z,87.43
2023-05-15T23:47:21.276Z,86.49
2023-05-15T23:49:49.431Z,86.79
2023-05-15T23:52:17.722Z,86.81
2023-05-15T23:54:47.265Z,87.16
2023-05-15T23:57:15.676Z,86.63
2023-05-15T23:59:43.850Z,86.01
